Fayette, Missouri
Current Conditions -  °F | °C
As of 12:55 PM on Thursday 23 Oct 2014 (Local Time) from KVER Reporting Station
Overcast Overcast  
Wind Chill: 61°   Ceiling: 9000
Heat Index: 61°   Visibility: 10mi
Dew Point: 50°   Wind: 3mph
Humidity: 67%   Direction: 190°S
Pressure: 30.13"   Gusts: NA
Location:  39.15°N, 92.68°W
Report Text: KVER 231755Z AUTO 19003KT 10SM SCT075 OVC090 16/10 A3013 RMK AO2 T01600098 10241 20038
Loading
Personal Weather Stations






























Interactive Weather Map
Tropical Storm Tracking
New forecast layout! Learn more

10-Day Weather Forecast

Advertisements
Track Severe Weather on mobile